Latest Weather Observations for Scoresby

IDV60801

Issued at 4:02 pm EST Wednesday 1 July 2015 (issued every 30 minutes, with the page automatically refreshed every 10 minutes)

About weather observations | Map of weather stations | Latest weather observations for VIC | Other Formats
Station Details ID: 086104 Name: SCORESBY RESEARCH INSTITUTE Lat: -37.87 Lon: 145.26 Height: 80.0 m
Data from the previous 72 hours. | See also: Recent months at Scoresby
Date/Time
EST
Temp
°C
App
Temp
°C
Dew
Point
Rel
Hum
%
Delta-T
°C
Wind Press
QNH
hPa
Press
MSL
hPa
Rain
since 9 am
mm
Dir
 
Spd
km/h
Gust
km/h
Spd
kts
Gust
kts
01/04:00pm 12.7 9.0 2.6 50 4.4 NNW 11 20 6 11 - - 0.0
01/03:30pm 12.8 9.1 2.4 49 4.6 NW 11 20 6 11 - - 0.0
01/03:00pm 13.1 9.0 2.1 47 4.8 NNW 13 28 7 15 - - 0.0
01/02:30pm 12.9 9.1 1.9 47 4.8 NNW 11 22 6 12 - - 0.0
01/02:00pm 12.9 8.6 1.3 45 5.0 NW 13 24 7 13 - - 0.0
01/01:30pm 12.9 8.7 1.6 46 4.9 NW 13 24 7 13 - - 0.0
01/01:00pm 13.1 8.7 0.5 42 5.3 NNW 13 26 7 14 - - 0.0
01/12:30pm 13.5 9.2 0.9 42 5.4 NW 13 24 7 13 - - 0.0
01/12:00pm 12.7 7.6 0.8 44 5.0 NW 17 30 9 16 - - 0.0
01/11:30am 12.1 7.9 1.4 48 4.6 NNW 13 24 7 13 - - 0.0
01/11:00am 11.6 8.6 4.1 60 3.4 NNW 9 17 5 9 - - 0.0
01/10:30am 10.8 8.3 4.7 66 2.8 NNW 7 13 4 7 - - 0.0
01/10:00am 10.5 8.3 5.5 71 2.3 N 6 13 3 7 - - 0.0
01/09:30am 9.9 8.0 6.8 81 1.5 NNE 6 9 3 5 - - 0.0
01/09:00am 9.4 7.9 7.0 85 1.1 NNE 4 6 2 3 - - 0.0
01/08:30am 9.0 7.0 7.0 87 0.9 NNE 7 11 4 6 - - 0.0
01/08:00am 8.8 6.9 6.8 87 0.9 NNE 6 9 3 5 - - 0.0
01/07:30am 8.9 7.0 6.9 87 0.9 NNE 6 9 3 5 - - 0.0
01/07:00am 8.7 6.9 7.0 89 0.8 NNE 6 9 3 5 - - 0.0
01/06:30am 8.8 7.7 6.9 88 0.9 NNE 2 4 1 2 - - 0.0
01/06:00am 8.6 7.5 6.7 88 0.9 NE 2 4 1 2 - - 0.0
01/05:30am 8.7 8.0 6.8 88 0.9 CALM 0 2 0 1 - - 0.0
01/05:00am 8.9 7.7 6.3 84 1.2 NNE 2 6 1 3 - - 0.0
01/04:30am 9.3 7.6 5.7 78 1.6 NNE 4 6 2 3 - - 0.0
01/04:00am 9.3 7.5 5.5 77 1.7 NNE 4 6 2 3 - - 0.0
01/03:30am 9.4 7.6 5.6 77 1.7 NE 4 7 2 4 - - 0.0
01/03:00am 9.6 8.2 5.6 76 1.8 NNE 2 6 1 3 - - 0.0
01/02:30am 9.5 7.7 5.3 75 1.9 NNE 4 7 2 4 - - 0.0
01/02:00am 9.4 7.9 5.0 74 2.0 NNE 2 6 1 3 - - 0.0
01/01:30am 9.5 8.0 4.9 73 2.1 NNE 2 6 1 3 - - 0.0
01/01:00am 9.6 7.7 4.8 72 2.2 NNE 4 7 2 4 - - 0.0
01/12:30am 9.7 8.6 5.1 73 2.1 CALM 0 6 0 3 - - 0.0
01/12:00am 9.7 8.2 4.9 72 2.2 N 2 4 1 2 - - 0.0
 
Date/Time
EST
Temp
°C
App
Temp
°C
Dew
Point
Rel
Hum
%
Delta-T
°C
Wind Press
QNH
hPa
Press
MSL
hPa
Rain
since 9 am
mm
Dir
 
Spd
km/h
Gust
km/h
Spd
kts
Gust
kts
30/11:30pm 9.6 8.4 4.6 71 2.2 CALM 0 2 0 1 - - 0.0
30/11:00pm 9.4 8.2 4.4 71 2.2 CALM 0 0 0 0 - - 0.0
30/10:30pm 9.7 8.1 4.3 69 2.4 NE 2 6 1 3 - - 0.0
30/10:00pm 9.8 8.6 4.6 70 2.3 CALM 0 0 0 0 - - 0.0
30/09:30pm 10.0 8.7 4.0 66 2.7 CALM 0 0 0 0 - - 0.0
30/09:00pm 10.1 8.1 4.3 67 2.6 NNE 4 6 2 3 - - 0.0
30/08:30pm 10.1 8.1 4.3 67 2.6 NE 4 7 2 4 - - 0.0
30/08:00pm 9.8 8.6 4.6 70 2.3 CALM 0 0 0 0 - - 0.0
30/07:30pm 9.5 8.2 4.3 70 2.3 CALM 0 0 0 0 - - 0.0
30/07:00pm 9.6 8.3 4.2 69 2.4 CALM 0 0 0 0 - - 0.0
30/06:30pm 10.1 8.9 4.7 69 2.4 CALM 0 0 0 0 - - 0.0
30/06:00pm 10.9 9.6 3.9 62 3.1 CALM 0 0 0 0 - - 0.0
30/05:30pm 11.0 9.7 4.0 62 3.1 CALM 0 4 0 2 - - 0.0
30/05:00pm 11.2 9.9 4.2 62 3.1 CALM 0 0 0 0 - - 0.0
30/04:30pm 11.7 10.0 4.0 59 3.5 NW 2 6 1 3 - - 0.0
30/04:00pm 12.1 10.0 3.9 57 3.7 NW 4 7 2 4 - - 0.0
30/03:30pm 12.3 10.6 3.8 56 3.8 NNW 2 6 1 3 - - 0.0
30/03:00pm 13.0 11.1 4.7 57 3.8 WNW 4 9 2 5 - - 0.0
30/02:30pm 13.0 11.4 4.7 57 3.8 NNW 2 9 1 5 - - 0.0
30/02:00pm 11.7 10.1 4.7 62 3.2 W 2 4 1 2 - - 0.0
30/01:30pm 11.6 9.8 5.5 66 2.8 WNW 4 7 2 4 - - 0.0
30/01:00pm 11.4 9.2 5.5 67 2.7 W 6 7 3 4 - - 0.0
30/12:30pm 11.2 9.0 5.3 67 2.7 WSW 6 9 3 5 - - 0.0
30/12:00pm 12.5 11.1 5.7 63 3.2 W 2 4 1 2 - - 0.0
30/11:30am 12.7 11.5 6.5 66 3.0 N 2 6 1 3 - - 0.0
30/11:00am 10.9 9.2 5.7 70 2.4 NW 4 9 2 5 - - 0.0
30/10:30am 10.7 9.0 5.9 72 2.2 NNE 4 7 2 4 - - 0.0
30/10:00am 10.0 9.2 6.3 78 1.7 CALM 0 2 0 1 - - 0.0
30/09:30am 8.6 7.5 6.7 88 0.9 NNE 2 6 1 3 - - 0.0
30/09:00am 6.8 6.0 6.4 97 0.2 CALM 0 2 0 1 - - 0.0
30/08:30am 3.5 2.0 2.9 96 0.2 CALM 0 0 0 0 - - 0.0
30/08:00am 3.3 1.7 2.7 96 0.2 CALM 0 0 0 0 - - 0.0
30/07:30am 3.6 2.1 3.0 96 0.2 CALM 0 0 0 0 - - 0.0
30/07:00am 3.7 2.2 3.1 96 0.2 CALM 0 0 0 0 - - 0.0
30/06:30am 4.2 2.4 3.6 96 0.2 N 2 4 1 2 - - 0.0
30/06:00am 2.5 0.8 1.8 95 0.3 CALM 0 0 0 0 - - 0.0
30/05:30am 2.3 0.6 1.6 95 0.3 CALM 0 4 0 2 - - 0.0
30/05:00am 2.7 1.0 2.0 95 0.3 CALM 0 0 0 0 - - 0.0
30/04:30am 3.0 1.4 2.3 95 0.3 CALM 0 0 0 0 - - 0.0
30/04:00am 2.6 0.9 1.9 95 0.3 CALM 0 0 0 0 - - 0.0
30/03:30am 2.7 1.0 2.0 95 0.3 CALM 0 0 0 0 - - 0.0
30/03:00am 2.8 1.1 1.9 94 0.4 CALM 0 0 0 0 - - 0.0
30/02:30am 3.5 1.9 2.6 94 0.4 CALM 0 0 0 0 - - 0.0
30/02:00am 3.7 2.2 2.8 94 0.4 CALM 0 0 0 0 - - 0.0
30/01:30am 4.2 2.7 3.2 93 0.4 CALM 0 0 0 0 - - 0.0
30/01:00am 5.0 3.7 4.0 93 0.4 CALM 0 0 0 0 - - 0.0
30/12:30am 5.5 4.2 4.2 91 0.6 CALM 0 0 0 0 - - 0.0
30/12:00am 6.2 5.1 5.2 93 0.4 CALM 0 0 0 0 - - 0.0
 
Date/Time
EST
Temp
°C
App
Temp
°C
Dew
Point
Rel
Hum
%
Delta-T
°C
Wind Press
QNH
hPa
Press
MSL
hPa
Rain
since 9 am
mm
Dir
 
Spd
km/h
Gust
km/h
Spd
kts
Gust
kts
29/11:30pm 5.1 3.7 3.8 91 0.5 CALM 0 0 0 0 - - 0.0
29/11:00pm 5.5 4.1 3.8 89 0.7 CALM 0 0 0 0 - - 0.0
29/10:30pm 7.0 5.8 4.7 85 1.0 CALM 0 0 0 0 - - 0.0
29/10:00pm 8.0 6.8 4.6 79 1.5 CALM 0 0 0 0 - - 0.0
29/09:30pm 9.3 8.3 5.5 77 1.7 CALM 0 4 0 2 - - 0.0
29/09:00pm 9.7 8.7 5.7 76 1.8 CALM 0 2 0 1 - - 0.0
29/08:30pm 9.7 7.6 5.7 76 1.8 SSE 6 9 3 5 - - 0.0
29/08:00pm 9.4 8.1 5.8 78 1.7 SSE 2 6 1 3 - - 0.0
29/07:30pm 9.0 8.0 5.4 78 1.6 CALM 0 2 0 1 - - 0.0
29/07:00pm 9.1 8.1 5.7 79 1.6 CALM 0 2 0 1 - - 0.0
29/06:30pm 8.9 7.9 5.5 79 1.5 CALM 0 0 0 0 - - 0.0
29/06:00pm 8.8 7.8 5.4 79 1.5 CALM 0 2 0 1 - - 0.0
29/05:30pm 8.8 7.3 5.2 78 1.6 SW 2 6 1 3 - - 0.0
29/05:00pm 9.6 8.1 5.0 73 2.1 SSW 2 6 1 3 - - 0.0
29/04:30pm 10.8 8.6 5.3 69 2.5 SW 6 9 3 5 - - 0.0
29/04:00pm 11.4 9.1 5.5 67 2.7 SSW 7 11 4 6 - - 0.0
29/03:30pm 11.6 9.4 5.5 66 2.8 SW 6 7 3 4 - - 0.0
29/03:00pm 12.4 10.1 5.8 64 3.1 SW 7 9 4 5 - - 0.0
29/02:30pm 12.6 10.5 6.0 64 3.1 WSW 6 9 3 5 - - 0.0
29/02:00pm 12.3 11.0 6.1 66 2.9 SW 2 6 1 3 - - 0.0
29/01:30pm 12.3 10.1 5.5 63 3.2 NW 6 9 3 5 - - 0.0
29/01:00pm 12.4 11.1 6.0 65 3.0 NNW 2 6 1 3 - - 0.0
29/12:30pm 11.1 8.9 5.2 67 2.7 W 6 9 3 5 - - 0.0
29/12:00pm 10.9 9.1 5.2 68 2.6 NNW 4 7 2 4 - - 0.0
29/11:30am 10.6 9.1 5.2 69 2.5 NNE 2 6 1 3 - - 0.0
29/11:00am 10.7 9.3 5.7 71 2.3 W 2 7 1 4 - - 0.0
29/10:30am 10.5 9.5 5.7 72 2.2 CALM 0 4 0 2 - - 0.0
29/10:00am 10.2 8.7 5.2 71 2.3 NW 2 4 1 2 - - 0.0
29/09:30am 10.1 9.3 6.6 79 1.6 CALM 0 0 0 0 - - 0.0
29/09:00am 9.6 8.9 7.0 84 1.2 CALM 0 2 0 1 - - 0.0
29/08:30am 8.9 8.2 6.9 87 0.9 CALM 0 0 0 0 - - 0.0
29/08:00am 8.6 7.8 6.7 88 0.9 CALM 0 2 0 1 - - 0.0
29/07:30am 8.3 7.5 6.4 88 0.9 CALM 0 0 0 0 - - 0.0
29/07:00am 8.5 7.7 6.6 88 0.9 CALM 0 0 0 0 - - 0.0
29/06:30am 8.4 7.6 6.5 88 0.9 CALM 0 0 0 0 - - 0.0
29/06:00am 8.4 7.6 6.7 89 0.8 CALM 0 0 0 0 - - 0.0
29/05:30am 8.3 7.6 6.8 90 0.7 CALM 0 0 0 0 - - 0.0
29/05:00am 8.0 7.2 6.6 91 0.6 CALM 0 2 0 1 - - 0.0
29/04:30am 8.1 7.4 7.0 93 0.5 CALM 0 0 0 0 - - 0.0
29/04:00am 7.6 6.8 6.7 94 0.4 CALM 0 4 0 2 - - 0.0
29/03:30am 7.2 6.4 6.5 95 0.3 CALM 0 0 0 0 - - 0.0
29/03:00am 6.7 5.8 6.1 96 0.3 CALM 0 0 0 0 - - 0.0
29/02:30am 6.1 5.1 5.5 96 0.3 CALM 0 0 0 0 - - 0.0
29/02:00am 5.3 4.1 4.6 95 0.3 CALM 0 0 0 0 - - 0.0
29/01:30am 4.1 2.7 3.4 95 0.3 CALM 0 0 0 0 - - 0.0
29/01:00am 4.3 2.9 3.4 94 0.4 CALM 0 0 0 0 - - 0.0
29/12:30am 4.9 3.6 3.9 93 0.4 CALM 0 0 0 0 - - 0.0
29/12:00am 6.0 4.9 5.0 93 0.4 CALM 0 0 0 0 - - 0.0
 
Date/Time
EST
Temp
°C
App
Temp
°C
Dew
Point
Rel
Hum
%
Delta-T
°C
Wind Press
QNH
hPa
Press
MSL
hPa
Rain
since 9 am
mm
Dir
 
Spd
km/h
Gust
km/h
Spd
kts
Gust
kts
28/11:30pm 6.6 5.6 5.4 92 0.5 CALM 0 0 0 0 - - 0.0
28/11:00pm 7.3 6.4 5.9 91 0.6 CALM 0 0 0 0 - - 0.0
28/10:30pm 8.2 7.4 6.5 89 0.8 CALM 0 0 0 0 - - 0.0
28/10:00pm 9.0 8.3 7.0 87 0.9 CALM 0 0 0 0 - - 0.0
28/09:30pm 9.8 9.2 7.6 86 1.1 CALM 0 0 0 0 - - 0.0
28/09:00pm 9.6 9.0 7.4 86 1.0 CALM 0 0 0 0 - - 0.0
28/08:30pm 9.6 9.0 7.2 85 1.1 CALM 0 0 0 0 - - 0.0
28/08:00pm 9.8 9.1 7.1 83 1.3 CALM 0 0 0 0 - - 0.0
28/07:30pm 10.2 9.6 7.3 82 1.4 CALM 0 0 0 0 - - 0.0
28/07:00pm 10.3 9.7 7.2 81 1.5 CALM 0 0 0 0 - - 0.0
28/06:30pm 10.4 9.7 7.1 80 1.6 CALM 0 0 0 0 - - 0.0
28/06:00pm 10.8 10.0 6.7 76 1.9 CALM 0 0 0 0 - - 0.0
28/05:30pm 11.3 10.6 6.8 74 2.1 CALM 0 0 0 0 - - 0.0
28/05:00pm 12.4 11.6 6.7 68 2.7 CALM 0 4 0 2 - - 0.0
28/04:30pm 12.7 11.3 7.2 69 2.7 SW 4 6 2 3 - - 0.0

Other Formats:

Comma delimited format used in spreadsheet applications
http://www.bom.gov.au/fwo/IDV60801/IDV60801.95867.axf

JavaScript Object Notation format (JSON) in row-major order
http://www.bom.gov.au/fwo/IDV60801/IDV60801.95867.json